sensor_id;sensor_type;location;lat;lon;timestamp;temperature;humidity
12039;DHT22;6080;48.818;9.526;2023-04-24T03:01:59;11.00;99.90
12039;DHT22;6080;48.818;9.526;2023-04-24T03:04:25;10.90;99.90
12039;DHT22;6080;48.818;9.526;2023-04-24T03:06:52;10.90;99.90
12039;DHT22;6080;48.818;9.526;2023-04-24T03:09:23;11.00;99.90
12039;DHT22;6080;48.818;9.526;2023-04-24T03:11:49;11.00;99.90
12039;DHT22;6080;48.818;9.526;2023-04-24T03:14:15;11.00;99.90
12039;DHT22;6080;48.818;9.526;2023-04-24T03:16:41;11.10;99.90
12039;DHT22;6080;48.818;9.526;2023-04-24T03:19:07;11.10;99.90
12039;DHT22;6080;48.818;9.526;2023-04-24T03:21:33;11.00;99.90
12039;DHT22;6080;48.818;9.526;2023-04-24T03:24:00;11.00;99.90
12039;DHT22;6080;48.818;9.526;2023-04-24T03:26:26;10.90;99.90
12039;DHT22;6080;48.818;9.526;2023-04-24T03:28:51;10.80;99.90
12039;DHT22;6080;48.818;9.526;2023-04-24T03:31:17;10.90;99.90
12039;DHT22;6080;48.818;9.526;2023-04-24T03:33:44;10.80;99.90
12039;DHT22;6080;48.818;9.526;2023-04-24T03:36:10;10.80;99.90
12039;DHT22;6080;48.818;9.526;2023-04-24T03:38:36;10.80;99.90
12039;DHT22;6080;48.818;9.526;2023-04-24T03:41:02;10.80;99.90
12039;DHT22;6080;48.818;9.526;2023-04-24T03:43:28;10.80;99.90
12039;DHT22;6080;48.818;9.526;2023-04-24T03:45:53;10.80;99.90
12039;DHT22;6080;48.818;9.526;2023-04-24T03:48:19;10.80;99.90
12039;DHT22;6080;48.818;9.526;2023-04-24T03:50:45;10.80;99.90
12039;DHT22;6080;48.818;9.526;2023-04-24T03:53:11;10.90;99.90
12039;DHT22;6080;48.818;9.526;2023-04-24T03:55:37;10.90;99.90
12039;DHT22;6080;48.818;9.526;2023-04-24T03:58:02;10.90;99.90
12039;DHT22;6080;48.818;9.526;2023-04-24T04:00:28;10.90;99.90
12039;DHT22;6080;48.818;9.526;2023-04-24T04:02:58;10.90;99.90
12039;DHT22;6080;48.818;9.526;2023-04-24T04:05:24;11.00;99.90
12039;DHT22;6080;48.818;9.526;2023-04-24T04:07:50;10.90;99.90
12039;DHT22;6080;48.818;9.526;2023-04-24T04:10:16;10.90;99.90
12039;DHT22;6080;48.818;9.526;2023-04-24T04:12:42;10.90;99.90
12039;DHT22;6080;48.818;9.526;2023-04-24T04:15:08;11.00;99.90
12039;DHT22;6080;48.818;9.526;2023-04-24T04:17:34;10.90;99.90
12039;DHT22;6080;48.818;9.526;2023-04-24T04:20:00;10.80;99.90
12039;DHT22;6080;48.818;9.526;2023-04-24T04:22:26;10.70;99.90
12039;DHT22;6080;48.818;9.526;2023-04-24T04:24:52;10.60;99.90
12039;DHT22;6080;48.818;9.526;2023-04-24T04:27:18;10.60;99.90
12039;DHT22;6080;48.818;9.526;2023-04-24T04:29:44;10.60;99.90
12039;DHT22;6080;48.818;9.526;2023-04-24T04:32:10;10.60;99.90
12039;DHT22;6080;48.818;9.526;2023-04-24T04:34:36;10.60;99.90
12039;DHT22;6080;48.818;9.526;2023-04-24T04:37:03;10.70;99.90
12039;DHT22;6080;48.818;9.526;2023-04-24T04:39:29;10.80;99.90
12039;DHT22;6080;48.818;9.526;2023-04-24T04:41:56;10.80;99.90
12039;DHT22;6080;48.818;9.526;2023-04-24T04:44:21;10.90;99.90
12039;DHT22;6080;48.818;9.526;2023-04-24T04:46:47;11.10;99.90
12039;DHT22;6080;48.818;9.526;2023-04-24T04:49:13;11.10;99.90
12039;DHT22;6080;48.818;9.526;2023-04-24T04:51:42;11.10;99.90
12039;DHT22;6080;48.818;9.526;2023-04-24T04:54:08;11.00;99.90
12039;DHT22;6080;48.818;9.526;2023-04-24T04:56:33;11.10;99.90
12039;DHT22;6080;48.818;9.526;2023-04-24T04:58:59;10.90;99.90
12039;DHT22;6080;48.818;9.526;2023-04-24T05:01:25;10.70;99.90
12039;DHT22;6080;48.818;9.526;2023-04-24T05:03:53;10.60;99.90
12039;DHT22;6080;48.818;9.526;2023-04-24T05:06:19;10.50;99.90
12039;DHT22;6080;48.818;9.526;2023-04-24T05:08:45;10.50;99.90
12039;DHT22;6080;48.818;9.526;2023-04-24T05:11:10;10.50;99.90
12039;DHT22;6080;48.818;9.526;2023-04-24T05:13:36;10.50;99.90
12039;DHT22;6080;48.818;9.526;2023-04-24T05:16:02;10.50;99.90
12039;DHT22;6080;48.818;9.526;2023-04-24T05:18:28;10.50;99.90
12039;DHT22;6080;48.818;9.526;2023-04-24T05:20:54;10.40;99.90
12039;DHT22;6080;48.818;9.526;2023-04-24T05:23:19;10.40;99.90
12039;DHT22;6080;48.818;9.526;2023-04-24T05:25:45;10.30;99.90
12039;DHT22;6080;48.818;9.526;2023-04-24T05:28:11;10.20;99.90
12039;DHT22;6080;48.818;9.526;2023-04-24T05:30:37;10.10;99.90
12039;DHT22;6080;48.818;9.526;2023-04-24T05:33:03;10.10;99.90
12039;DHT22;6080;48.818;9.526;2023-04-24T05:35:29;10.10;99.90
12039;DHT22;6080;48.818;9.526;2023-04-24T05:37:55;10.20;99.90
12039;DHT22;6080;48.818;9.526;2023-04-24T05:40:20;10.20;99.90
12039;DHT22;6080;48.818;9.526;2023-04-24T05:42:46;10.20;99.90
12039;DHT22;6080;48.818;9.526;2023-04-24T05:45:12;10.30;99.90
12039;DHT22;6080;48.818;9.526;2023-04-24T05:47:42;10.30;99.90
12039;DHT22;6080;48.818;9.526;2023-04-24T05:50:10;10.40;99.90
12039;DHT22;6080;48.818;9.526;2023-04-24T05:52:36;10.40;99.90
12039;DHT22;6080;48.818;9.526;2023-04-24T05:55:02;10.50;99.90
12039;DHT22;6080;48.818;9.526;2023-04-24T05:57:27;10.50;99.90
12039;DHT22;6080;48.818;9.526;2023-04-24T05:59:53;10.50;99.90
12039;DHT22;6080;48.818;9.526;2023-04-24T06:02:19;10.50;99.90
12039;DHT22;6080;48.818;9.526;2023-04-24T06:04:45;10.60;99.90
12039;DHT22;6080;48.818;9.526;2023-04-24T06:07:11;10.60;99.90
12039;DHT22;6080;48.818;9.526;2023-04-24T06:09:37;10.60;99.90
12039;DHT22;6080;48.818;9.526;2023-04-24T06:12:03;10.70;99.90
12039;DHT22;6080;48.818;9.526;2023-04-24T06:14:29;10.70;99.90
12039;DHT22;6080;48.818;9.526;2023-04-24T06:16:54;10.80;99.90
12039;DHT22;6080;48.818;9.526;2023-04-24T06:19:20;10.80;99.90
12039;DHT22;6080;48.818;9.526;2023-04-24T06:21:46;10.80;99.90
12039;DHT22;6080;48.818;9.526;2023-04-24T06:24:14;10.90;99.90
12039;DHT22;6080;48.818;9.526;2023-04-24T06:26:40;10.90;99.90
12039;DHT22;6080;48.818;9.526;2023-04-24T06:29:06;10.90;99.90
12039;DHT22;6080;48.818;9.526;2023-04-24T06:31:32;10.80;99.90
12039;DHT22;6080;48.818;9.526;2023-04-24T06:34:03;10.80;99.90
12039;DHT22;6080;48.818;9.526;2023-04-24T06:36:29;10.80;99.90
12039;DHT22;6080;48.818;9.526;2023-04-24T06:38:56;10.70;99.90
12039;DHT22;6080;48.818;9.526;2023-04-24T06:41:22;10.70;99.90
12039;DHT22;6080;48.818;9.526;2023-04-24T06:43:48;10.80;99.90
12039;DHT22;6080;48.818;9.526;2023-04-24T06:46:14;10.90;99.90
12039;DHT22;6080;48.818;9.526;2023-04-24T06:48:40;11.10;99.90
12039;DHT22;6080;48.818;9.526;2023-04-24T06:51:05;12.00;99.90
12039;DHT22;6080;48.818;9.526;2023-04-24T06:53:31;12.50;99.90
12039;DHT22;6080;48.818;9.526;2023-04-24T06:55:57;13.50;99.90
12039;DHT22;6080;48.818;9.526;2023-04-24T06:58:24;14.70;99.90
12039;DHT22;6080;48.818;9.526;2023-04-24T07:00:50;15.70;99.90
12039;DHT22;6080;48.818;9.526;2023-04-24T07:03:16;16.50;99.90
12039;DHT22;6080;48.818;9.526;2023-04-24T07:05:42;17.20;99.90
12039;DHT22;6080;48.818;9.526;2023-04-24T07:08:08;17.30;99.90
12039;DHT22;6080;48.818;9.526;2023-04-24T07:10:34;17.60;99.90
12039;DHT22;6080;48.818;9.526;2023-04-24T07:13:01;18.00;99.90
12039;DHT22;6080;48.818;9.526;2023-04-24T07:15:27;18.20;99.90
12039;DHT22;6080;48.818;9.526;2023-04-24T07:17:52;18.20;99.90
12039;DHT22;6080;48.818;9.526;2023-04-24T07:20:18;18.30;99.90
12039;DHT22;6080;48.818;9.526;2023-04-24T07:22:44;18.10;99.90
12039;DHT22;6080;48.818;9.526;2023-04-24T07:25:10;17.40;99.90
12039;DHT22;6080;48.818;9.526;2023-04-24T07:27:35;16.30;99.90
12039;DHT22;6080;48.818;9.526;2023-04-24T07:30:03;15.80;99.90
12039;DHT22;6080;48.818;9.526;2023-04-24T07:32:29;16.30;99.90
12039;DHT22;6080;48.818;9.526;2023-04-24T07:34:55;16.70;99.90
12039;DHT22;6080;48.818;9.526;2023-04-24T07:37:22;16.20;99.90
12039;DHT22;6080;48.818;9.526;2023-04-24T07:39:47;16.10;99.90
12039;DHT22;6080;48.818;9.526;2023-04-24T07:42:13;16.10;99.90
12039;DHT22;6080;48.818;9.526;2023-04-24T07:44:39;15.70;99.90
12039;DHT22;6080;48.818;9.526;2023-04-24T07:47:05;14.60;99.90
12039;DHT22;6080;48.818;9.526;2023-04-24T07:49:31;13.90;99.90
12039;DHT22;6080;48.818;9.526;2023-04-24T07:51:57;13.40;99.90
12039;DHT22;6080;48.818;9.526;2023-04-24T07:54:23;12.90;99.90
12039;DHT22;6080;48.818;9.526;2023-04-24T07:56:49;12.70;99.90
12039;DHT22;6080;48.818;9.526;2023-04-24T07:59:15;12.50;99.90
12039;DHT22;6080;48.818;9.526;2023-04-24T08:01:41;12.50;99.90
12039;DHT22;6080;48.818;9.526;2023-04-24T08:04:07;12.70;99.90
12039;DHT22;6080;48.818;9.526;2023-04-24T08:06:32;13.00;99.90
12039;DHT22;6080;48.818;9.526;2023-04-24T08:08:59;13.20;99.90
12039;DHT22;6080;48.818;9.526;2023-04-24T08:11:26;13.30;99.90
12039;DHT22;6080;48.818;9.526;2023-04-24T08:13:51;13.60;99.90
12039;DHT22;6080;48.818;9.526;2023-04-24T08:16:17;13.90;99.90
12039;DHT22;6080;48.818;9.526;2023-04-24T08:18:43;14.70;99.90
12039;DHT22;6080;48.818;9.526;2023-04-24T08:21:09;15.10;99.90
12039;DHT22;6080;48.818;9.526;2023-04-24T08:23:35;14.40;99.90
12039;DHT22;6080;48.818;9.526;2023-04-24T08:26:00;13.80;99.90
12039;DHT22;6080;48.818;9.526;2023-04-24T08:28:26;13.20;99.90
12039;DHT22;6080;48.818;9.526;2023-04-24T08:30:52;13.00;99.90
12039;DHT22;6080;48.818;9.526;2023-04-24T08:33:23;12.90;99.90
12039;DHT22;6080;48.818;9.526;2023-04-24T08:35:49;13.10;99.90
12039;DHT22;6080;48.818;9.526;2023-04-24T08:38:15;13.80;99.90
12039;DHT22;6080;48.818;9.526;2023-04-24T08:40:41;13.90;99.90
12039;DHT22;6080;48.818;9.526;2023-04-24T08:43:08;14.00;99.90
12039;DHT22;6080;48.818;9.526;2023-04-24T08:45:34;13.90;99.90
12039;DHT22;6080;48.818;9.526;2023-04-24T08:48:00;13.70;99.90
12039;DHT22;6080;48.818;9.526;2023-04-24T08:50:27;13.80;99.90
12039;DHT22;6080;48.818;9.526;2023-04-24T08:52:54;13.60;99.90
12039;DHT22;6080;48.818;9.526;2023-04-24T08:55:20;13.50;99.90
12039;DHT22;6080;48.818;9.526;2023-04-24T08:57:51;13.30;99.90
12039;DHT22;6080;48.818;9.526;2023-04-24T09:00:20;13.90;99.90
12039;DHT22;6080;48.818;9.526;2023-04-24T09:02:48;14.50;99.90
12039;DHT22;6080;48.818;9.526;2023-04-24T09:05:16;14.70;99.90
12039;DHT22;6080;48.818;9.526;2023-04-24T09:07:45;14.60;99.90
12039;DHT22;6080;48.818;9.526;2023-04-24T09:10:13;14.40;99.90
12039;DHT22;6080;48.818;9.526;2023-04-24T09:12:39;14.70;99.90
12039;DHT22;6080;48.818;9.526;2023-04-24T09:15:07;14.60;99.90
12039;DHT22;6080;48.818;9.526;2023-04-24T09:17:33;13.90;99.90
12039;DHT22;6080;48.818;9.526;2023-04-24T09:19:59;13.60;99.90
12039;DHT22;6080;48.818;9.526;2023-04-24T09:22:29;13.20;99.90
12039;DHT22;6080;48.818;9.526;2023-04-24T09:25:08;13.00;99.90
12039;DHT22;6080;48.818;9.526;2023-04-24T09:27:44;12.80;99.90
12039;DHT22;6080;48.818;9.526;2023-04-24T09:30:11;12.70;99.90
12039;DHT22;6080;48.818;9.526;2023-04-24T09:32:37;12.70;99.90
12039;DHT22;6080;48.818;9.526;2023-04-24T09:35:10;12.90;99.90
12039;DHT22;6080;48.818;9.526;2023-04-24T09:37:38;13.00;99.90
12039;DHT22;6080;48.818;9.526;2023-04-24T09:40:23;13.20;99.90
12039;DHT22;6080;48.818;9.526;2023-04-24T09:42:53;13.00;99.90
12039;DHT22;6080;48.818;9.526;2023-04-24T09:45:20;12.70;99.90
12039;DHT22;6080;48.818;9.526;2023-04-24T09:47:46;12.50;99.90
12039;DHT22;6080;48.818;9.526;2023-04-24T09:50:17;12.30;99.90
12039;DHT22;6080;48.818;9.526;2023-04-24T09:52:57;12.00;99.90
12039;DHT22;6080;48.818;9.526;2023-04-24T09:55:24;11.90;99.90
12039;DHT22;6080;48.818;9.526;2023-04-24T09:57:56;12.00;99.90
12039;DHT22;6080;48.818;9.526;2023-04-24T10:00:27;12.40;99.90
12039;DHT22;6080;48.818;9.526;2023-04-24T10:03:03;12.90;99.90
12039;DHT22;6080;48.818;9.526;2023-04-24T10:05:34;13.50;99.90
12039;DHT22;6080;48.818;9.526;2023-04-24T10:08:07;13.60;99.90
12039;DHT22;6080;48.818;9.526;2023-04-24T10:10:37;13.90;99.90
12039;DHT22;6080;48.818;9.526;2023-04-24T10:13:04;13.80;99.90
12039;DHT22;6080;48.818;9.526;2023-04-24T10:15:30;13.50;99.90
12039;DHT22;6080;48.818;9.526;2023-04-24T10:17:58;13.80;99.90
12039;DHT22;6080;48.818;9.526;2023-04-24T10:20:27;13.80;99.90
12039;DHT22;6080;48.818;9.526;2023-04-24T10:22:55;14.30;99.90
12039;DHT22;6080;48.818;9.526;2023-04-24T10:25:24;14.50;99.90
12039;DHT22;6080;48.818;9.526;2023-04-24T10:27:52;14.00;99.90
12039;DHT22;6080;48.818;9.526;2023-04-24T10:30:21;13.70;99.90
12039;DHT22;6080;48.818;9.526;2023-04-24T10:32:47;13.60;99.90
12039;DHT22;6080;48.818;9.526;2023-04-24T10:35:14;13.50;99.90
12039;DHT22;6080;48.818;9.526;2023-04-24T10:37:45;13.30;99.90
12039;DHT22;6080;48.818;9.526;2023-04-24T10:40:17;13.60;99.90
12039;DHT22;6080;48.818;9.526;2023-04-24T10:42:47;14.00;99.90
12039;DHT22;6080;48.818;9.526;2023-04-24T10:45:17;14.10;99.90
12039;DHT22;6080;48.818;9.526;2023-04-24T10:47:52;14.40;99.90
12039;DHT22;6080;48.818;9.526;2023-04-24T10:50:17;14.90;99.90
12039;DHT22;6080;48.818;9.526;2023-04-24T10:52:44;15.40;99.90
12039;DHT22;6080;48.818;9.526;2023-04-24T10:55:12;15.80;99.90
12039;DHT22;6080;48.818;9.526;2023-04-24T10:57:38;16.00;99.90
12039;DHT22;6080;48.818;9.526;2023-04-24T11:00:15;15.30;99.90
12039;DHT22;6080;48.818;9.526;2023-04-24T11:02:42;14.50;99.90
12039;DHT22;6080;48.818;9.526;2023-04-24T11:05:18;14.00;99.90
12039;DHT22;6080;48.818;9.526;2023-04-24T11:08:09;13.60;99.90
12039;DHT22;6080;48.818;9.526;2023-04-24T11:11:01;13.30;99.90
12039;DHT22;6080;48.818;9.526;2023-04-24T11:16:40;13.20;99.90
12039;DHT22;6080;48.818;9.526;2023-04-24T11:21:58;13.50;99.90
12039;DHT22;6080;48.818;9.526;2023-04-24T11:34:54;14.00;99.90
12039;DHT22;6080;48.818;9.526;2023-04-24T11:37:21;14.10;99.90
12039;DHT22;6080;48.818;9.526;2023-04-24T11:39:47;14.00;99.90
12039;DHT22;6080;48.818;9.526;2023-04-24T11:42:15;13.80;99.90
12039;DHT22;6080;48.818;9.526;2023-04-24T11:44:42;13.80;99.90
12039;DHT22;6080;48.818;9.526;2023-04-24T11:47:08;13.60;99.90
12039;DHT22;6080;48.818;9.526;2023-04-24T11:49:36;13.40;99.90
12039;DHT22;6080;48.818;9.526;2023-04-24T11:52:03;13.10;99.90
12039;DHT22;6080;48.818;9.526;2023-04-24T11:54:29;12.90;99.90
12039;DHT22;6080;48.818;9.526;2023-04-24T11:56:56;13.00;99.90
12039;DHT22;6080;48.818;9.526;2023-04-24T11:59:22;13.10;99.90
12039;DHT22;6080;48.818;9.526;2023-04-24T12:01:48;13.60;99.90
12039;DHT22;6080;48.818;9.526;2023-04-24T12:04:16;14.00;99.90
12039;DHT22;6080;48.818;9.526;2023-04-24T12:07:01;14.50;99.90
12039;DHT22;6080;48.818;9.526;2023-04-24T12:09:27;14.50;99.90
12039;DHT22;6080;48.818;9.526;2023-04-24T12:11:56;14.50;99.90
12039;DHT22;6080;48.818;9.526;2023-04-24T12:14:23;14.50;99.90
12039;DHT22;6080;48.818;9.526;2023-04-24T12:16:50;14.50;99.90
12039;DHT22;6080;48.818;9.526;2023-04-24T12:19:22;14.50;99.90
12039;DHT22;6080;48.818;9.526;2023-04-24T12:22:05;14.00;99.90
12039;DHT22;6080;48.818;9.526;2023-04-24T12:24:31;13.50;99.90
12039;DHT22;6080;48.818;9.526;2023-04-24T12:26:58;13.20;99.90
12039;DHT22;6080;48.818;9.526;2023-04-24T12:29:24;13.00;99.90
12039;DHT22;6080;48.818;9.526;2023-04-24T12:31:51;12.90;99.90
12039;DHT22;6080;48.818;9.526;2023-04-24T12:34:21;12.70;99.90
12039;DHT22;6080;48.818;9.526;2023-04-24T12:36:48;13.20;99.90
12039;DHT22;6080;48.818;9.526;2023-04-24T12:39:18;14.80;99.90
12039;DHT22;6080;48.818;9.526;2023-04-24T12:41:55;15.80;99.90
12039;DHT22;6080;48.818;9.526;2023-04-24T12:44:34;16.10;99.90
12039;DHT22;6080;48.818;9.526;2023-04-24T12:47:01;15.60;99.90
12039;DHT22;6080;48.818;9.526;2023-04-24T12:49:29;15.30;99.90
12039;DHT22;6080;48.818;9.526;2023-04-24T12:51:56;14.80;99.90
12039;DHT22;6080;48.818;9.526;2023-04-24T12:54:22;14.40;99.90
12039;DHT22;6080;48.818;9.526;2023-04-24T12:56:48;14.10;99.90
12039;DHT22;6080;48.818;9.526;2023-04-24T12:59:13;13.80;99.90
12039;DHT22;6080;48.818;9.526;2023-04-24T13:01:40;13.70;99.90
12039;DHT22;6080;48.818;9.526;2023-04-24T13:04:06;13.60;99.90
12039;DHT22;6080;48.818;9.526;2023-04-24T13:06:32;13.50;99.90
12039;DHT22;6080;48.818;9.526;2023-04-24T13:08:58;13.30;99.90
12039;DHT22;6080;48.818;9.526;2023-04-24T13:11:24;13.20;99.90
12039;DHT22;6080;48.818;9.526;2023-04-24T13:13:50;13.20;99.90
12039;DHT22;6080;48.818;9.526;2023-04-24T13:16:16;13.20;99.90
12039;DHT22;6080;48.818;9.526;2023-04-24T13:18:42;13.30;99.90
12039;DHT22;6080;48.818;9.526;2023-04-24T13:21:08;13.50;99.90
12039;DHT22;6080;48.818;9.526;2023-04-24T13:23:34;13.60;99.90
12039;DHT22;6080;48.818;9.526;2023-04-24T13:26:00;13.60;99.90
12039;DHT22;6080;48.818;9.526;2023-04-24T13:28:26;13.60;99.90
12039;DHT22;6080;48.818;9.526;2023-04-24T13:30:53;13.50;99.90
12039;DHT22;6080;48.818;9.526;2023-04-24T13:33:18;13.30;99.90
12039;DHT22;6080;48.818;9.526;2023-04-24T13:35:44;12.80;99.90
12039;DHT22;6080;48.818;9.526;2023-04-24T13:38:10;12.40;99.90
12039;DHT22;6080;48.818;9.526;2023-04-24T13:40:36;11.90;99.90
12039;DHT22;6080;48.818;9.526;2023-04-24T13:43:02;11.30;99.90
12039;DHT22;6080;48.818;9.526;2023-04-24T13:45:28;11.00;99.90
12039;DHT22;6080;48.818;9.526;2023-04-24T13:47:55;11.00;99.90
12039;DHT22;6080;48.818;9.526;2023-04-24T13:50:22;11.40;99.90
12039;DHT22;6080;48.818;9.526;2023-04-24T13:52:48;12.40;99.90
12039;DHT22;6080;48.818;9.526;2023-04-24T13:55:14;13.70;99.90
12039;DHT22;6080;48.818;9.526;2023-04-24T13:57:39;15.80;99.90
12039;DHT22;6080;48.818;9.526;2023-04-24T14:00:06;16.80;99.90
12039;DHT22;6080;48.818;9.526;2023-04-24T14:02:32;16.60;99.90
12039;DHT22;6080;48.818;9.526;2023-04-24T14:04:57;16.80;99.90
12039;DHT22;6080;48.818;9.526;2023-04-24T14:07:23;16.70;99.90
12039;DHT22;6080;48.818;9.526;2023-04-24T14:09:49;16.20;99.90
12039;DHT22;6080;48.818;9.526;2023-04-24T14:12:16;15.60;99.90
12039;DHT22;6080;48.818;9.526;2023-04-24T14:14:45;14.90;99.90
12039;DHT22;6080;48.818;9.526;2023-04-24T14:17:11;14.10;99.90
12039;DHT22;6080;48.818;9.526;2023-04-24T14:19:37;13.80;99.90
12039;DHT22;6080;48.818;9.526;2023-04-24T14:22:03;13.40;99.90
12039;DHT22;6080;48.818;9.526;2023-04-24T14:24:29;13.00;99.90
12039;DHT22;6080;48.818;9.526;2023-04-24T14:26:54;12.60;99.90
12039;DHT22;6080;48.818;9.526;2023-04-24T14:29:21;12.00;99.90
12039;DHT22;6080;48.818;9.526;2023-04-24T14:31:47;11.30;99.90
12039;DHT22;6080;48.818;9.526;2023-04-24T14:34:14;11.20;99.90
12039;DHT22;6080;48.818;9.526;2023-04-24T14:36:39;11.30;99.90
12039;DHT22;6080;48.818;9.526;2023-04-24T14:39:06;11.60;99.90
12039;DHT22;6080;48.818;9.526;2023-04-24T14:41:32;12.20;99.90
12039;DHT22;6080;48.818;9.526;2023-04-24T14:44:02;12.90;99.90
12039;DHT22;6080;48.818;9.526;2023-04-24T14:46:29;13.80;99.90
12039;DHT22;6080;48.818;9.526;2023-04-24T14:48:56;15.20;99.90
12039;DHT22;6080;48.818;9.526;2023-04-24T14:51:22;15.40;99.90
12039;DHT22;6080;48.818;9.526;2023-04-24T14:53:48;15.00;99.90
12039;DHT22;6080;48.818;9.526;2023-04-24T14:56:14;14.50;99.90
12039;DHT22;6080;48.818;9.526;2023-04-24T14:58:40;14.40;99.90
12039;DHT22;6080;48.818;9.526;2023-04-24T15:01:06;14.60;99.90
12039;DHT22;6080;48.818;9.526;2023-04-24T15:03:32;15.70;99.90
12039;DHT22;6080;48.818;9.526;2023-04-24T15:05:57;16.80;99.90
12039;DHT22;6080;48.818;9.526;2023-04-24T15:08:23;18.10;99.90
12039;DHT22;6080;48.818;9.526;2023-04-24T15:10:49;18.90;99.90
12039;DHT22;6080;48.818;9.526;2023-04-24T15:13:15;19.00;99.90
12039;DHT22;6080;48.818;9.526;2023-04-24T15:15:41;18.60;99.90
12039;DHT22;6080;48.818;9.526;2023-04-24T15:18:08;17.40;99.90
12039;DHT22;6080;48.818;9.526;2023-04-24T15:20:36;16.70;99.90
12039;DHT22;6080;48.818;9.526;2023-04-24T15:23:02;15.50;99.90
12039;DHT22;6080;48.818;9.526;2023-04-24T15:25:27;15.30;99.90
12039;DHT22;6080;48.818;9.526;2023-04-24T15:27:53;15.20;99.90
12039;DHT22;6080;48.818;9.526;2023-04-24T15:30:20;15.50;99.90
12039;DHT22;6080;48.818;9.526;2023-04-24T15:32:45;16.50;99.90
12039;DHT22;6080;48.818;9.526;2023-04-24T15:35:11;17.50;99.90
12039;DHT22;6080;48.818;9.526;2023-04-24T15:37:38;18.50;99.90
12039;DHT22;6080;48.818;9.526;2023-04-24T15:40:04;17.70;99.90
12039;DHT22;6080;48.818;9.526;2023-04-24T15:42:32;15.80;99.90
12039;DHT22;6080;48.818;9.526;2023-04-24T15:44:58;14.50;99.90
12039;DHT22;6080;48.818;9.526;2023-04-24T15:47:24;13.70;99.90
12039;DHT22;6080;48.818;9.526;2023-04-24T15:49:52;13.20;99.90
12039;DHT22;6080;48.818;9.526;2023-04-24T15:52:18;13.00;99.90
12039;DHT22;6080;48.818;9.526;2023-04-24T15:54:44;13.00;99.90
12039;DHT22;6080;48.818;9.526;2023-04-24T15:57:10;13.10;99.90
12039;DHT22;6080;48.818;9.526;2023-04-24T15:59:37;13.10;99.90
12039;DHT22;6080;48.818;9.526;2023-04-24T16:02:03;13.10;99.90
12039;DHT22;6080;48.818;9.526;2023-04-24T16:04:29;13.10;99.90
12039;DHT22;6080;48.818;9.526;2023-04-24T16:06:55;13.00;99.90
12039;DHT22;6080;48.818;9.526;2023-04-24T16:09:22;12.70;99.90
12039;DHT22;6080;48.818;9.526;2023-04-24T16:11:48;12.30;99.90
12039;DHT22;6080;48.818;9.526;2023-04-24T16:14:14;12.20;99.90
12039;DHT22;6080;48.818;9.526;2023-04-24T16:16:39;12.40;99.90
12039;DHT22;6080;48.818;9.526;2023-04-24T16:19:06;12.60;99.90
12039;DHT22;6080;48.818;9.526;2023-04-24T16:21:33;12.60;99.90
12039;DHT22;6080;48.818;9.526;2023-04-24T16:23:58;12.90;99.90
12039;DHT22;6080;48.818;9.526;2023-04-24T16:26:24;13.00;99.90
12039;DHT22;6080;48.818;9.526;2023-04-24T16:28:50;13.00;99.90
12039;DHT22;6080;48.818;9.526;2023-04-24T16:31:17;13.10;99.90
12039;DHT22;6080;48.818;9.526;2023-04-24T16:33:42;13.00;99.90
12039;DHT22;6080;48.818;9.526;2023-04-24T16:36:08;12.90;99.90
12039;DHT22;6080;48.818;9.526;2023-04-24T16:38:34;12.80;99.90
12039;DHT22;6080;48.818;9.526;2023-04-24T16:41:00;12.60;99.90
12039;DHT22;6080;48.818;9.526;2023-04-24T16:43:26;12.60;99.90
12039;DHT22;6080;48.818;9.526;2023-04-24T16:45:53;12.40;99.90
12039;DHT22;6080;48.818;9.526;2023-04-24T16:48:18;12.30;99.90
12039;DHT22;6080;48.818;9.526;2023-04-24T16:50:44;12.20;99.90
12039;DHT22;6080;48.818;9.526;2023-04-24T16:53:13;12.20;99.90
12039;DHT22;6080;48.818;9.526;2023-04-24T16:55:39;12.20;99.90
12039;DHT22;6080;48.818;9.526;2023-04-24T16:58:04;12.50;99.90
12039;DHT22;6080;48.818;9.526;2023-04-24T17:00:30;12.70;99.90
12039;DHT22;6080;48.818;9.526;2023-04-24T17:02:56;12.70;99.90
12039;DHT22;6080;48.818;9.526;2023-04-24T17:05:22;12.50;99.90
12039;DHT22;6080;48.818;9.526;2023-04-24T17:07:50;12.50;99.90
12039;DHT22;6080;48.818;9.526;2023-04-24T17:10:16;12.50;99.90
12039;DHT22;6080;48.818;9.526;2023-04-24T17:12:42;12.30;99.90
12039;DHT22;6080;48.818;9.526;2023-04-24T17:15:08;12.30;99.90
12039;DHT22;6080;48.818;9.526;2023-04-24T17:17:34;12.30;99.90
12039;DHT22;6080;48.818;9.526;2023-04-24T17:20:00;12.20;99.90
12039;DHT22;6080;48.818;9.526;2023-04-24T17:22:26;12.20;99.90
12039;DHT22;6080;48.818;9.526;2023-04-24T17:24:52;12.10;99.90
12039;DHT22;6080;48.818;9.526;2023-04-24T17:27:17;12.10;99.90
12039;DHT22;6080;48.818;9.526;2023-04-24T17:29:43;12.10;99.90
12039;DHT22;6080;48.818;9.526;2023-04-24T17:32:09;12.10;99.90
12039;DHT22;6080;48.818;9.526;2023-04-24T17:34:35;12.10;99.90
12039;DHT22;6080;48.818;9.526;2023-04-24T17:37:01;12.10;99.90
12039;DHT22;6080;48.818;9.526;2023-04-24T17:39:28;12.10;99.90
12039;DHT22;6080;48.818;9.526;2023-04-24T17:41:54;12.00;99.90
12039;DHT22;6080;48.818;9.526;2023-04-24T17:44:21;11.90;99.90
12039;DHT22;6080;48.818;9.526;2023-04-24T17:46:49;11.90;99.90
12039;DHT22;6080;48.818;9.526;2023-04-24T17:49:15;11.80;99.90
12039;DHT22;6080;48.818;9.526;2023-04-24T17:51:41;11.70;99.90
12039;DHT22;6080;48.818;9.526;2023-04-24T17:54:07;11.60;99.90
12039;DHT22;6080;48.818;9.526;2023-04-24T17:56:32;11.60;99.90
12039;DHT22;6080;48.818;9.526;2023-04-24T17:58:58;11.60;99.90
12039;DHT22;6080;48.818;9.526;2023-04-24T18:01:24;11.60;99.90
12039;DHT22;6080;48.818;9.526;2023-04-24T18:03:52;11.60;99.90
12039;DHT22;6080;48.818;9.526;2023-04-24T18:06:18;11.60;99.90
12039;DHT22;6080;48.818;9.526;2023-04-24T18:08:44;11.60;99.90
12039;DHT22;6080;48.818;9.526;2023-04-24T18:11:10;11.60;99.90
12039;DHT22;6080;48.818;9.526;2023-04-24T18:13:35;11.60;99.90
12039;DHT22;6080;48.818;9.526;2023-04-24T18:16:03;11.50;99.90
12039;DHT22;6080;48.818;9.526;2023-04-24T18:18:29;11.50;99.90
12039;DHT22;6080;48.818;9.526;2023-04-24T18:20:54;11.40;99.90
12039;DHT22;6080;48.818;9.526;2023-04-24T18:23:20;11.40;99.90
12039;DHT22;6080;48.818;9.526;2023-04-24T18:25:46;11.30;99.90
12039;DHT22;6080;48.818;9.526;2023-04-24T18:28:12;11.30;99.90
12039;DHT22;6080;48.818;9.526;2023-04-24T18:30:37;11.20;99.90
12039;DHT22;6080;48.818;9.526;2023-04-24T18:33:04;11.10;99.90
12039;DHT22;6080;48.818;9.526;2023-04-24T18:35:30;11.10;99.90
12039;DHT22;6080;48.818;9.526;2023-04-24T18:37:58;11.10;99.90
12039;DHT22;6080;48.818;9.526;2023-04-24T18:40:24;11.10;99.90
12039;DHT22;6080;48.818;9.526;2023-04-24T18:42:50;11.10;99.90
12039;DHT22;6080;48.818;9.526;2023-04-24T18:45:16;11.10;99.90
12039;DHT22;6080;48.818;9.526;2023-04-24T18:47:42;11.10;99.90
12039;DHT22;6080;48.818;9.526;2023-04-24T18:50:08;11.10;99.90
12039;DHT22;6080;48.818;9.526;2023-04-24T18:52:34;11.10;99.90
12039;DHT22;6080;48.818;9.526;2023-04-24T18:55:00;11.10;99.90
12039;DHT22;6080;48.818;9.526;2023-04-24T18:57:28;11.10;99.90
12039;DHT22;6080;48.818;9.526;2023-04-24T18:59:54;11.00;99.90